sensor_id;sensor_type;location;lat;lon;timestamp;temperature;humidity
69626;DHT22;56847;51.984;5.088;2022-07-19T00:00:19;27.80;44.60
69626;DHT22;56847;51.984;5.088;2022-07-19T00:02:48;27.70;44.50
69626;DHT22;56847;51.984;5.088;2022-07-19T00:05:16;27.70;44.60
69626;DHT22;56847;51.984;5.088;2022-07-19T00:07:43;27.60;44.60
69626;DHT22;56847;51.984;5.088;2022-07-19T00:10:14;27.60;44.70
69626;DHT22;56847;51.984;5.088;2022-07-19T00:12:42;27.60;44.70
69626;DHT22;56847;51.984;5.088;2022-07-19T00:15:13;27.50;44.90
69626;DHT22;56847;51.984;5.088;2022-07-19T00:17:43;27.50;45.00
69626;DHT22;56847;51.984;5.088;2022-07-19T00:20:15;27.50;45.00
69626;DHT22;56847;51.984;5.088;2022-07-19T00:22:43;27.40;45.30
69626;DHT22;56847;51.984;5.088;2022-07-19T00:25:12;27.30;45.30
69626;DHT22;56847;51.984;5.088;2022-07-19T00:27:39;27.30;45.40
69626;DHT22;56847;51.984;5.088;2022-07-19T00:30:09;27.30;45.60
69626;DHT22;56847;51.984;5.088;2022-07-19T00:32:37;27.20;45.80
69626;DHT22;56847;51.984;5.088;2022-07-19T00:35:06;27.20;46.00
69626;DHT22;56847;51.984;5.088;2022-07-19T00:37:33;27.20;46.10
69626;DHT22;56847;51.984;5.088;2022-07-19T00:40:01;27.10;46.20
69626;DHT22;56847;51.984;5.088;2022-07-19T00:42:28;27.10;46.30
69626;DHT22;56847;51.984;5.088;2022-07-19T00:44:55;27.10;46.40
69626;DHT22;56847;51.984;5.088;2022-07-19T00:47:22;27.10;46.50
69626;DHT22;56847;51.984;5.088;2022-07-19T00:49:50;27.00;46.70
69626;DHT22;56847;51.984;5.088;2022-07-19T00:52:19;27.00;46.60
69626;DHT22;56847;51.984;5.088;2022-07-19T00:54:48;27.00;46.50
69626;DHT22;56847;51.984;5.088;2022-07-19T00:57:16;27.00;46.50
69626;DHT22;56847;51.984;5.088;2022-07-19T00:59:43;27.00;46.60
69626;DHT22;56847;51.984;5.088;2022-07-19T01:02:13;27.00;46.60
69626;DHT22;56847;51.984;5.088;2022-07-19T01:04:43;26.90;46.70
69626;DHT22;56847;51.984;5.088;2022-07-19T01:07:13;26.90;46.80
69626;DHT22;56847;51.984;5.088;2022-07-19T01:09:42;26.90;46.80
69626;DHT22;56847;51.984;5.088;2022-07-19T01:12:09;26.80;46.90
69626;DHT22;56847;51.984;5.088;2022-07-19T01:14:37;26.80;47.00
69626;DHT22;56847;51.984;5.088;2022-07-19T01:17:07;26.70;47.10
69626;DHT22;56847;51.984;5.088;2022-07-19T01:19:34;26.70;47.40
69626;DHT22;56847;51.984;5.088;2022-07-19T01:22:02;26.60;47.60
69626;DHT22;56847;51.984;5.088;2022-07-19T01:24:29;26.60;47.60
69626;DHT22;56847;51.984;5.088;2022-07-19T01:26:56;26.50;47.70
69626;DHT22;56847;51.984;5.088;2022-07-19T01:29:24;26.50;47.80
69626;DHT22;56847;51.984;5.088;2022-07-19T01:31:52;26.40;47.90
69626;DHT22;56847;51.984;5.088;2022-07-19T01:34:19;26.40;48.00
69626;DHT22;56847;51.984;5.088;2022-07-19T01:36:46;26.40;48.10
69626;DHT22;56847;51.984;5.088;2022-07-19T01:39:13;26.30;48.10
69626;DHT22;56847;51.984;5.088;2022-07-19T01:41:41;26.30;48.20
69626;DHT22;56847;51.984;5.088;2022-07-19T01:44:08;26.30;48.30
69626;DHT22;56847;51.984;5.088;2022-07-19T01:46:35;26.20;48.40
69626;DHT22;56847;51.984;5.088;2022-07-19T01:49:04;26.20;48.50
69626;DHT22;56847;51.984;5.088;2022-07-19T01:51:31;26.10;48.60
69626;DHT22;56847;51.984;5.088;2022-07-19T01:53:59;26.10;48.80
69626;DHT22;56847;51.984;5.088;2022-07-19T01:56:26;26.00;48.90
69626;DHT22;56847;51.984;5.088;2022-07-19T01:58:53;26.00;48.80
69626;DHT22;56847;51.984;5.088;2022-07-19T02:01:21;26.00;48.90
69626;DHT22;56847;51.984;5.088;2022-07-19T02:03:48;26.00;48.90
69626;DHT22;56847;51.984;5.088;2022-07-19T02:06:18;25.90;48.90
69626;DHT22;56847;51.984;5.088;2022-07-19T02:08:45;25.90;48.90
69626;DHT22;56847;51.984;5.088;2022-07-19T02:11:13;25.90;49.10
69626;DHT22;56847;51.984;5.088;2022-07-19T02:14:01;25.80;49.10
69626;DHT22;56847;51.984;5.088;2022-07-19T02:16:28;25.80;49.00
69626;DHT22;56847;51.984;5.088;2022-07-19T02:18:55;25.80;49.20
69626;DHT22;56847;51.984;5.088;2022-07-19T02:21:26;25.70;49.20
69626;DHT22;56847;51.984;5.088;2022-07-19T02:23:53;25.70;49.20
69626;DHT22;56847;51.984;5.088;2022-07-19T02:26:21;25.70;49.40
69626;DHT22;56847;51.984;5.088;2022-07-19T02:28:48;25.70;49.40
69626;DHT22;56847;51.984;5.088;2022-07-19T02:31:16;25.60;49.50
69626;DHT22;56847;51.984;5.088;2022-07-19T02:33:43;25.60;49.50
69626;DHT22;56847;51.984;5.088;2022-07-19T02:36:10;25.60;49.70
69626;DHT22;56847;51.984;5.088;2022-07-19T02:38:38;25.60;49.80
69626;DHT22;56847;51.984;5.088;2022-07-19T02:41:06;25.50;49.80
69626;DHT22;56847;51.984;5.088;2022-07-19T02:43:33;25.50;49.90
69626;DHT22;56847;51.984;5.088;2022-07-19T02:46:00;25.50;50.00
69626;DHT22;56847;51.984;5.088;2022-07-19T02:48:28;25.40;50.20
69626;DHT22;56847;51.984;5.088;2022-07-19T02:50:56;25.40;50.20
69626;DHT22;56847;51.984;5.088;2022-07-19T02:53:26;25.40;50.30
69626;DHT22;56847;51.984;5.088;2022-07-19T02:55:54;25.40;50.50
69626;DHT22;56847;51.984;5.088;2022-07-19T02:58:21;25.30;50.70
69626;DHT22;56847;51.984;5.088;2022-07-19T03:00:48;25.30;50.90
69626;DHT22;56847;51.984;5.088;2022-07-19T03:03:16;25.30;50.90
69626;DHT22;56847;51.984;5.088;2022-07-19T03:06:02;25.30;51.00
69626;DHT22;56847;51.984;5.088;2022-07-19T03:08:33;25.20;51.00
69626;DHT22;56847;51.984;5.088;2022-07-19T03:11:03;25.20;51.00
69626;DHT22;56847;51.984;5.088;2022-07-19T03:13:34;25.20;51.00
69626;DHT22;56847;51.984;5.088;2022-07-19T03:16:01;25.10;51.00
69626;DHT22;56847;51.984;5.088;2022-07-19T03:18:32;25.10;51.00
69626;DHT22;56847;51.984;5.088;2022-07-19T03:21:00;25.10;51.00
69626;DHT22;56847;51.984;5.088;2022-07-19T03:23:34;25.10;51.00
69626;DHT22;56847;51.984;5.088;2022-07-19T03:26:03;25.10;50.90
69626;DHT22;56847;51.984;5.088;2022-07-19T03:28:31;25.10;50.80
69626;DHT22;56847;51.984;5.088;2022-07-19T03:30:59;25.10;50.90
69626;DHT22;56847;51.984;5.088;2022-07-19T03:33:26;25.10;50.90
69626;DHT22;56847;51.984;5.088;2022-07-19T03:35:54;25.10;50.90
69626;DHT22;56847;51.984;5.088;2022-07-19T03:38:27;25.10;50.80
69626;DHT22;56847;51.984;5.088;2022-07-19T03:40:54;25.10;50.70
69626;DHT22;56847;51.984;5.088;2022-07-19T03:43:24;25.10;50.80
69626;DHT22;56847;51.984;5.088;2022-07-19T03:45:52;25.10;50.90
69626;DHT22;56847;51.984;5.088;2022-07-19T03:48:19;25.10;50.90
69626;DHT22;56847;51.984;5.088;2022-07-19T03:50:48;25.10;50.90
69626;DHT22;56847;51.984;5.088;2022-07-19T03:53:15;25.10;50.90
69626;DHT22;56847;51.984;5.088;2022-07-19T03:55:43;25.10;51.00
69626;DHT22;56847;51.984;5.088;2022-07-19T03:58:13;25.10;51.20
69626;DHT22;56847;51.984;5.088;2022-07-19T04:00:40;25.00;51.20
69626;DHT22;56847;51.984;5.088;2022-07-19T04:03:08;25.00;51.30
69626;DHT22;56847;51.984;5.088;2022-07-19T04:05:35;25.00;51.40
69626;DHT22;56847;51.984;5.088;2022-07-19T04:08:02;25.00;51.50
69626;DHT22;56847;51.984;5.088;2022-07-19T04:10:29;25.00;51.50
69626;DHT22;56847;51.984;5.088;2022-07-19T04:13:01;25.00;51.60
69626;DHT22;56847;51.984;5.088;2022-07-19T04:15:28;25.00;51.70
69626;DHT22;56847;51.984;5.088;2022-07-19T04:17:55;25.00;51.80
69626;DHT22;56847;51.984;5.088;2022-07-19T04:20:55;25.00;51.80
69626;DHT22;56847;51.984;5.088;2022-07-19T04:23:28;25.00;52.00
69626;DHT22;56847;51.984;5.088;2022-07-19T04:25:58;25.00;51.90
69626;DHT22;56847;51.984;5.088;2022-07-19T04:28:25;25.00;51.90
69626;DHT22;56847;51.984;5.088;2022-07-19T04:30:52;25.10;51.80
69626;DHT22;56847;51.984;5.088;2022-07-19T04:33:20;25.10;51.80
69626;DHT22;56847;51.984;5.088;2022-07-19T04:35:50;25.10;51.90
69626;DHT22;56847;51.984;5.088;2022-07-19T04:38:18;25.10;51.80
69626;DHT22;56847;51.984;5.088;2022-07-19T04:40:53;25.10;51.90
69626;DHT22;56847;51.984;5.088;2022-07-19T04:43:29;25.10;51.90
69626;DHT22;56847;51.984;5.088;2022-07-19T04:46:02;25.10;52.00
69626;DHT22;56847;51.984;5.088;2022-07-19T04:48:33;25.10;52.10
69626;DHT22;56847;51.984;5.088;2022-07-19T04:51:03;25.10;52.00
69626;DHT22;56847;51.984;5.088;2022-07-19T04:53:34;25.10;52.10
69626;DHT22;56847;51.984;5.088;2022-07-19T04:56:06;25.10;52.10
69626;DHT22;56847;51.984;5.088;2022-07-19T04:58:40;25.20;52.20
69626;DHT22;56847;51.984;5.088;2022-07-19T05:01:09;25.20;52.10
69626;DHT22;56847;51.984;5.088;2022-07-19T05:03:36;25.20;52.00
69626;DHT22;56847;51.984;5.088;2022-07-19T05:06:05;25.20;51.80
69626;DHT22;56847;51.984;5.088;2022-07-19T05:08:33;25.20;51.90
69626;DHT22;56847;51.984;5.088;2022-07-19T05:11:06;25.30;51.80
69626;DHT22;56847;51.984;5.088;2022-07-19T05:13:33;25.30;51.80
69626;DHT22;56847;51.984;5.088;2022-07-19T05:25:10;25.50;51.60
69626;DHT22;56847;51.984;5.088;2022-07-19T05:27:51;25.50;51.40
69626;DHT22;56847;51.984;5.088;2022-07-19T05:30:18;25.60;51.20
69626;DHT22;56847;51.984;5.088;2022-07-19T05:32:45;25.60;51.00
69626;DHT22;56847;51.984;5.088;2022-07-19T05:35:12;25.60;50.80
69626;DHT22;56847;51.984;5.088;2022-07-19T05:37:39;25.70;50.60
69626;DHT22;56847;51.984;5.088;2022-07-19T05:40:07;25.70;50.40
69626;DHT22;56847;51.984;5.088;2022-07-19T05:42:34;25.80;50.30
69626;DHT22;56847;51.984;5.088;2022-07-19T05:45:01;25.90;50.10
69626;DHT22;56847;51.984;5.088;2022-07-19T05:47:28;26.00;50.00
69626;DHT22;56847;51.984;5.088;2022-07-19T05:49:56;26.10;49.90
69626;DHT22;56847;51.984;5.088;2022-07-19T05:52:23;26.10;49.90
69626;DHT22;56847;51.984;5.088;2022-07-19T05:54:52;26.20;49.70
69626;DHT22;56847;51.984;5.088;2022-07-19T05:57:19;26.30;49.50
69626;DHT22;56847;51.984;5.088;2022-07-19T05:59:47;26.50;49.30
69626;DHT22;56847;51.984;5.088;2022-07-19T06:02:40;26.70;49.30
69626;DHT22;56847;51.984;5.088;2022-07-19T06:05:09;27.70;48.10
69626;DHT22;56847;51.984;5.088;2022-07-19T06:07:42;28.80;46.10
69626;DHT22;56847;51.984;5.088;2022-07-19T06:10:09;29.20;44.40
69626;DHT22;56847;51.984;5.088;2022-07-19T06:12:41;29.10;44.40
69626;DHT22;56847;51.984;5.088;2022-07-19T06:15:10;28.90;44.60
69626;DHT22;56847;51.984;5.088;2022-07-19T06:17:38;28.70;44.90
69626;DHT22;56847;51.984;5.088;2022-07-19T06:20:08;28.60;45.00
69626;DHT22;56847;51.984;5.088;2022-07-19T06:22:38;28.50;45.20
69626;DHT22;56847;51.984;5.088;2022-07-19T06:25:08;28.50;45.10
69626;DHT22;56847;51.984;5.088;2022-07-19T06:27:41;28.50;45.30
69626;DHT22;56847;51.984;5.088;2022-07-19T06:30:46;28.50;45.30
69626;DHT22;56847;51.984;5.088;2022-07-19T06:33:17;28.50;45.50
69626;DHT22;56847;51.984;5.088;2022-07-19T06:35:48;28.60;45.40
69626;DHT22;56847;51.984;5.088;2022-07-19T06:38:19;28.60;45.30
69626;DHT22;56847;51.984;5.088;2022-07-19T06:40:49;28.70;45.40
69626;DHT22;56847;51.984;5.088;2022-07-19T06:43:16;28.80;45.30
69626;DHT22;56847;51.984;5.088;2022-07-19T06:45:58;28.90;45.30
69626;DHT22;56847;51.984;5.088;2022-07-19T06:48:25;28.90;45.10
69626;DHT22;56847;51.984;5.088;2022-07-19T06:50:53;29.00;44.90
69626;DHT22;56847;51.984;5.088;2022-07-19T06:53:20;29.10;44.80
69626;DHT22;56847;51.984;5.088;2022-07-19T06:55:50;29.20;44.40
69626;DHT22;56847;51.984;5.088;2022-07-19T06:58:17;29.30;44.20
69626;DHT22;56847;51.984;5.088;2022-07-19T07:00:44;29.30;44.20
69626;DHT22;56847;51.984;5.088;2022-07-19T07:03:12;29.40;44.20
69626;DHT22;56847;51.984;5.088;2022-07-19T07:05:51;29.50;44.10
69626;DHT22;56847;51.984;5.088;2022-07-19T07:08:21;29.60;43.90
69626;DHT22;56847;51.984;5.088;2022-07-19T07:10:48;29.80;43.80
69626;DHT22;56847;51.984;5.088;2022-07-19T07:13:15;29.80;43.40
69626;DHT22;56847;51.984;5.088;2022-07-19T07:15:43;29.90;43.30
69626;DHT22;56847;51.984;5.088;2022-07-19T07:18:12;30.00;43.20
69626;DHT22;56847;51.984;5.088;2022-07-19T07:20:39;30.10;43.10
69626;DHT22;56847;51.984;5.088;2022-07-19T07:23:06;30.20;43.20
69626;DHT22;56847;51.984;5.088;2022-07-19T07:25:33;30.30;43.20
69626;DHT22;56847;51.984;5.088;2022-07-19T07:28:19;30.50;43.10
69626;DHT22;56847;51.984;5.088;2022-07-19T07:30:52;30.60;42.80
69626;DHT22;56847;51.984;5.088;2022-07-19T07:33:22;30.60;42.80
69626;DHT22;56847;51.984;5.088;2022-07-19T07:35:52;30.70;43.00
69626;DHT22;56847;51.984;5.088;2022-07-19T07:38:53;30.80;43.10
69626;DHT22;56847;51.984;5.088;2022-07-19T07:41:32;30.90;42.80
69626;DHT22;56847;51.984;5.088;2022-07-19T07:44:08;31.00;42.80
69626;DHT22;56847;51.984;5.088;2022-07-19T07:46:36;31.10;42.80
69626;DHT22;56847;51.984;5.088;2022-07-19T07:49:06;31.30;42.30
69626;DHT22;56847;51.984;5.088;2022-07-19T07:51:34;31.40;42.10
69626;DHT22;56847;51.984;5.088;2022-07-19T07:54:18;31.50;42.10
69626;DHT22;56847;51.984;5.088;2022-07-19T07:56:46;31.60;42.00
69626;DHT22;56847;51.984;5.088;2022-07-19T07:59:28;31.80;42.00
69626;DHT22;56847;51.984;5.088;2022-07-19T08:02:08;31.90;41.70
69626;DHT22;56847;51.984;5.088;2022-07-19T08:04:38;32.00;41.60
69626;DHT22;56847;51.984;5.088;2022-07-19T08:07:13;32.10;41.40
69626;DHT22;56847;51.984;5.088;2022-07-19T08:09:43;32.20;41.40
69626;DHT22;56847;51.984;5.088;2022-07-19T08:12:12;32.20;41.20
69626;DHT22;56847;51.984;5.088;2022-07-19T08:14:40;32.30;41.20
69626;DHT22;56847;51.984;5.088;2022-07-19T08:17:07;32.40;41.30
69626;DHT22;56847;51.984;5.088;2022-07-19T08:19:35;32.60;41.00
69626;DHT22;56847;51.984;5.088;2022-07-19T08:22:02;32.70;40.70
69626;DHT22;56847;51.984;5.088;2022-07-19T08:24:29;32.80;40.20
69626;DHT22;56847;51.984;5.088;2022-07-19T08:27:01;32.90;39.80
69626;DHT22;56847;51.984;5.088;2022-07-19T08:29:28;33.00;39.60
69626;DHT22;56847;51.984;5.088;2022-07-19T08:31:55;33.10;39.80
69626;DHT22;56847;51.984;5.088;2022-07-19T08:34:28;33.30;39.90
69626;DHT22;56847;51.984;5.088;2022-07-19T08:36:55;33.40;39.50
69626;DHT22;56847;51.984;5.088;2022-07-19T08:39:23;33.50;38.80
69626;DHT22;56847;51.984;5.088;2022-07-19T08:41:54;33.50;38.70
69626;DHT22;56847;51.984;5.088;2022-07-19T08:44:28;33.70;38.60
69626;DHT22;56847;51.984;5.088;2022-07-19T08:46:56;33.80;38.50
69626;DHT22;56847;51.984;5.088;2022-07-19T08:49:24;33.90;38.20
69626;DHT22;56847;51.984;5.088;2022-07-19T08:52:00;34.00;38.20
69626;DHT22;56847;51.984;5.088;2022-07-19T08:54:28;34.10;37.90
69626;DHT22;56847;51.984;5.088;2022-07-19T08:57:03;34.20;37.80
69626;DHT22;56847;51.984;5.088;2022-07-19T08:59:49;34.40;37.20
69626;DHT22;56847;51.984;5.088;2022-07-19T09:02:19;34.40;36.60
69626;DHT22;56847;51.984;5.088;2022-07-19T09:05:04;34.50;36.00
69626;DHT22;56847;51.984;5.088;2022-07-19T09:07:36;34.60;35.80
69626;DHT22;56847;51.984;5.088;2022-07-19T09:10:15;34.60;35.80
69626;DHT22;56847;51.984;5.088;2022-07-19T09:15:46;34.80;35.50
69626;DHT22;56847;51.984;5.088;2022-07-19T09:21:05;35.10;35.40
69626;DHT22;56847;51.984;5.088;2022-07-19T09:23:33;35.20;34.70
69626;DHT22;56847;51.984;5.088;2022-07-19T09:26:04;35.30;34.60
69626;DHT22;56847;51.984;5.088;2022-07-19T09:28:35;35.40;34.40
69626;DHT22;56847;51.984;5.088;2022-07-19T09:31:06;35.50;33.90
69626;DHT22;56847;51.984;5.088;2022-07-19T09:33:41;35.60;33.50
69626;DHT22;56847;51.984;5.088;2022-07-19T09:36:14;35.70;33.20
69626;DHT22;56847;51.984;5.088;2022-07-19T09:38:42;35.80;33.30
69626;DHT22;56847;51.984;5.088;2022-07-19T09:41:22;35.90;33.70
69626;DHT22;56847;51.984;5.088;2022-07-19T09:44:02;36.00;33.60
69626;DHT22;56847;51.984;5.088;2022-07-19T09:46:39;36.10;33.10
69626;DHT22;56847;51.984;5.088;2022-07-19T09:49:17;36.20;33.00
69626;DHT22;56847;51.984;5.088;2022-07-19T09:51:47;36.30;32.70
69626;DHT22;56847;51.984;5.088;2022-07-19T09:54:24;36.40;32.40
69626;DHT22;56847;51.984;5.088;2022-07-19T09:56:56;36.50;32.40
69626;DHT22;56847;51.984;5.088;2022-07-19T09:59:28;36.70;32.40
69626;DHT22;56847;51.984;5.088;2022-07-19T10:02:44;36.80;32.00
69626;DHT22;56847;51.984;5.088;2022-07-19T10:06:18;37.00;31.90
69626;DHT22;56847;51.984;5.088;2022-07-19T11:39:51;40.00;28.40
69626;DHT22;56847;51.984;5.088;2022-07-19T11:42:40;40.10;28.20
69626;DHT22;56847;51.984;5.088;2022-07-19T11:45:48;40.10;28.20
69626;DHT22;56847;51.984;5.088;2022-07-19T11:48:28;40.20;27.90
69626;DHT22;56847;51.984;5.088;2022-07-19T11:51:08;40.20;28.00
69626;DHT22;56847;51.984;5.088;2022-07-19T11:53:38;40.30;28.00
69626;DHT22;56847;51.984;5.088;2022-07-19T11:56:15;40.40;28.00
69626;DHT22;56847;51.984;5.088;2022-07-19T11:58:43;40.50;28.10
69626;DHT22;56847;51.984;5.088;2022-07-19T12:01:11;40.50;28.10
69626;DHT22;56847;51.984;5.088;2022-07-19T12:03:38;40.60;28.30
69626;DHT22;56847;51.984;5.088;2022-07-19T12:06:08;40.70;28.10
69626;DHT22;56847;51.984;5.088;2022-07-19T12:08:38;40.80;27.80
69626;DHT22;56847;51.984;5.088;2022-07-19T12:11:17;40.90;27.90
69626;DHT22;56847;51.984;5.088;2022-07-19T12:13:48;40.90;27.50
69626;DHT22;56847;51.984;5.088;2022-07-19T12:16:19;40.90;27.70
69626;DHT22;56847;51.984;5.088;2022-07-19T12:18:54;41.00;27.40
69626;DHT22;56847;51.984;5.088;2022-07-19T12:24:18;41.10;26.90
69626;DHT22;56847;51.984;5.088;2022-07-19T12:29:28;41.10;27.10
69626;DHT22;56847;51.984;5.088;2022-07-19T12:32:31;41.20;27.10
69626;DHT22;56847;51.984;5.088;2022-07-19T12:35:11;41.20;26.50
69626;DHT22;56847;51.984;5.088;2022-07-19T12:37:43;41.20;26.50
69626;DHT22;56847;51.984;5.088;2022-07-19T12:40:12;41.20;26.90
69626;DHT22;56847;51.984;5.088;2022-07-19T12:45:49;41.30;26.20
69626;DHT22;56847;51.984;5.088;2022-07-19T12:48:23;41.30;26.00
69626;DHT22;56847;51.984;5.088;2022-07-19T12:50:53;41.20;26.00
69626;DHT22;56847;51.984;5.088;2022-07-19T12:53:21;41.20;25.90
69626;DHT22;56847;51.984;5.088;2022-07-19T12:55:49;41.30;25.90
69626;DHT22;56847;51.984;5.088;2022-07-19T12:58:17;41.30;25.90
69626;DHT22;56847;51.984;5.088;2022-07-19T13:01:03;41.30;25.50
69626;DHT22;56847;51.984;5.088;2022-07-19T13:03:33;41.30;25.70
69626;DHT22;56847;51.984;5.088;2022-07-19T13:09:36;41.40;25.70
69626;DHT22;56847;51.984;5.088;2022-07-19T13:26:54;41.60;25.90
69626;DHT22;56847;51.984;5.088;2022-07-19T13:29:23;41.60;25.70
69626;DHT22;56847;51.984;5.088;2022-07-19T13:32:02;41.60;25.70
69626;DHT22;56847;51.984;5.088;2022-07-19T13:34:39;41.60;25.60
69626;DHT22;56847;51.984;5.088;2022-07-19T13:37:10;41.70;25.30
69626;DHT22;56847;51.984;5.088;2022-07-19T13:39:42;41.70;25.50
69626;DHT22;56847;51.984;5.088;2022-07-19T15:03:55;42.60;23.30
69626;DHT22;56847;51.984;5.088;2022-07-19T15:06:32;42.50;23.30
69626;DHT22;56847;51.984;5.088;2022-07-19T15:09:07;42.50;23.40
69626;DHT22;56847;51.984;5.088;2022-07-19T15:11:45;42.50;23.50
69626;DHT22;56847;51.984;5.088;2022-07-19T15:14:25;42.50;23.20
69626;DHT22;56847;51.984;5.088;2022-07-19T15:17:04;42.50;23.20
69626;DHT22;56847;51.984;5.088;2022-07-19T15:19:35;42.50;23.60
69626;DHT22;56847;51.984;5.088;2022-07-19T15:22:02;42.60;23.90
69626;DHT22;56847;51.984;5.088;2022-07-19T15:24:32;42.70;23.80
69626;DHT22;56847;51.984;5.088;2022-07-19T15:27:00;42.80;23.30
69626;DHT22;56847;51.984;5.088;2022-07-19T15:29:43;42.80;23.50
69626;DHT22;56847;51.984;5.088;2022-07-19T15:32:16;42.90;23.50
69626;DHT22;56847;51.984;5.088;2022-07-19T15:34:46;43.00;23.50
69626;DHT22;56847;51.984;5.088;2022-07-19T15:37:20;43.00;23.30
69626;DHT22;56847;51.984;5.088;2022-07-19T15:39:48;43.00;23.50
69626;DHT22;56847;51.984;5.088;2022-07-19T15:42:35;43.00;23.50
69626;DHT22;56847;51.984;5.088;2022-07-19T15:45:12;43.10;23.40
69626;DHT22;56847;51.984;5.088;2022-07-19T15:47:39;43.20;23.70
69626;DHT22;56847;51.984;5.088;2022-07-19T15:50:12;43.20;23.50
69626;DHT22;56847;51.984;5.088;2022-07-19T15:52:45;43.20;23.40
69626;DHT22;56847;51.984;5.088;2022-07-19T15:55:16;43.30;23.30
69626;DHT22;56847;51.984;5.088;2022-07-19T15:57:50;43.30;23.30
69626;DHT22;56847;51.984;5.088;2022-07-19T16:00:26;43.40;23.50
69626;DHT22;56847;51.984;5.088;2022-07-19T16:03:02;43.50;23.60
69626;DHT22;56847;51.984;5.088;2022-07-19T16:05:48;43.60;23.70
69626;DHT22;56847;51.984;5.088;2022-07-19T16:08:48;43.70;23.80
69626;DHT22;56847;51.984;5.088;2022-07-19T16:26:01;44.30;23.10
69626;DHT22;56847;51.984;5.088;2022-07-19T16:28:36;44.40;22.90
69626;DHT22;56847;51.984;5.088;2022-07-19T16:31:06;44.60;22.90
69626;DHT22;56847;51.984;5.088;2022-07-19T16:33:34;44.70;22.90
69626;DHT22;56847;51.984;5.088;2022-07-19T16:36:02;44.80;22.80
69626;DHT22;56847;51.984;5.088;2022-07-19T16:38:32;44.90;22.50
69626;DHT22;56847;51.984;5.088;2022-07-19T16:41:03;45.00;22.30
69626;DHT22;56847;51.984;5.088;2022-07-19T16:43:40;45.20;22.20
69626;DHT22;56847;51.984;5.088;2022-07-19T16:46:08;45.40;22.10
69626;DHT22;56847;51.984;5.088;2022-07-19T16:48:41;45.50;21.90
69626;DHT22;56847;51.984;5.088;2022-07-19T16:51:14;45.60;21.50
69626;DHT22;56847;51.984;5.088;2022-07-19T16:53:50;45.60;21.30
69626;DHT22;56847;51.984;5.088;2022-07-19T16:56:19;45.70;21.30
69626;DHT22;56847;51.984;5.088;2022-07-19T16:58:51;46.00;21.20
69626;DHT22;56847;51.984;5.088;2022-07-19T17:01:21;46.20;20.90
69626;DHT22;56847;51.984;5.088;2022-07-19T17:03:49;46.40;20.80
69626;DHT22;56847;51.984;5.088;2022-07-19T17:06:17;46.70;20.60
69626;DHT22;56847;51.984;5.088;2022-07-19T17:08:51;46.90;20.70
69626;DHT22;56847;51.984;5.088;2022-07-19T17:11:21;47.10;20.20
69626;DHT22;56847;51.984;5.088;2022-07-19T17:13:54;47.40;20.00
69626;DHT22;56847;51.984;5.088;2022-07-19T17:16:30;47.60;19.90
69626;DHT22;56847;51.984;5.088;2022-07-19T17:19:10;47.90;19.80
69626;DHT22;56847;51.984;5.088;2022-07-19T17:21:47;48.30;19.70
69626;DHT22;56847;51.984;5.088;2022-07-19T17:24:26;48.70;19.40
69626;DHT22;56847;51.984;5.088;2022-07-19T17:26:55;49.10;19.40
69626;DHT22;56847;51.984;5.088;2022-07-19T17:29:27;49.40;19.00
69626;DHT22;56847;51.984;5.088;2022-07-19T17:31:54;49.80;18.70
69626;DHT22;56847;51.984;5.088;2022-07-19T17:34:23;50.00;18.80
69626;DHT22;56847;51.984;5.088;2022-07-19T17:36:59;50.30;18.60
69626;DHT22;56847;51.984;5.088;2022-07-19T17:39:51;50.50;18.60
69626;DHT22;56847;51.984;5.088;2022-07-19T17:42:43;50.70;18.50
69626;DHT22;56847;51.984;5.088;2022-07-19T17:45:13;50.90;18.20
69626;DHT22;56847;51.984;5.088;2022-07-19T17:47:44;51.00;18.10
69626;DHT22;56847;51.984;5.088;2022-07-19T17:50:12;51.10;18.00
69626;DHT22;56847;51.984;5.088;2022-07-19T17:52:40;51.10;18.00
69626;DHT22;56847;51.984;5.088;2022-07-19T17:55:11;51.20;18.00
69626;DHT22;56847;51.984;5.088;2022-07-19T17:57:55;51.20;17.80
69626;DHT22;56847;51.984;5.088;2022-07-19T18:00:39;51.20;17.70
69626;DHT22;56847;51.984;5.088;2022-07-19T18:03:15;50.90;17.90
69626;DHT22;56847;51.984;5.088;2022-07-19T18:05:49;50.40;18.10
69626;DHT22;56847;51.984;5.088;2022-07-19T18:08:21;49.60;18.20
69626;DHT22;56847;51.984;5.088;2022-07-19T18:10:52;48.80;18.60
69626;DHT22;56847;51.984;5.088;2022-07-19T18:13:35;47.90;19.10
69626;DHT22;56847;51.984;5.088;2022-07-19T18:19:03;46.40;20.10
69626;DHT22;56847;51.984;5.088;2022-07-19T18:21:32;45.60;20.60
69626;DHT22;56847;51.984;5.088;2022-07-19T18:24:01;45.10;20.90
69626;DHT22;56847;51.984;5.088;2022-07-19T18:26:28;44.60;21.30
69626;DHT22;56847;51.984;5.088;2022-07-19T18:29:00;44.20;21.50
69626;DHT22;56847;51.984;5.088;2022-07-19T18:31:30;43.70;21.60
69626;DHT22;56847;51.984;5.088;2022-07-19T18:33:57;43.40;21.90
69626;DHT22;56847;51.984;5.088;2022-07-19T18:36:28;43.00;22.10
69626;DHT22;56847;51.984;5.088;2022-07-19T18:38:58;42.70;22.40
69626;DHT22;56847;51.984;5.088;2022-07-19T18:41:28;42.30;22.70
69626;DHT22;56847;51.984;5.088;2022-07-19T18:43:55;42.00;23.00
69626;DHT22;56847;51.984;5.088;2022-07-19T18:46:22;41.70;23.30
69626;DHT22;56847;51.984;5.088;2022-07-19T18:48:50;41.50;23.50
69626;DHT22;56847;51.984;5.088;2022-07-19T18:51:18;41.30;23.80
69626;DHT22;56847;51.984;5.088;2022-07-19T18:53:46;41.00;23.90
69626;DHT22;56847;51.984;5.088;2022-07-19T18:56:15;40.80;24.30
69626;DHT22;56847;51.984;5.088;2022-07-19T18:58:46;40.60;24.40
69626;DHT22;56847;51.984;5.088;2022-07-19T19:01:14;40.40;24.70
69626;DHT22;56847;51.984;5.088;2022-07-19T19:03:46;40.20;24.60
69626;DHT22;56847;51.984;5.088;2022-07-19T19:06:13;40.00;25.30
69626;DHT22;56847;51.984;5.088;2022-07-19T19:08:40;39.90;25.30
69626;DHT22;56847;51.984;5.088;2022-07-19T19:11:07;39.70;25.80
69626;DHT22;56847;51.984;5.088;2022-07-19T19:13:36;39.50;25.50
69626;DHT22;56847;51.984;5.088;2022-07-19T19:16:03;39.30;25.50
69626;DHT22;56847;51.984;5.088;2022-07-19T19:18:31;39.20;25.50
69626;DHT22;56847;51.984;5.088;2022-07-19T19:21:01;39.10;25.70
69626;DHT22;56847;51.984;5.088;2022-07-19T19:23:29;38.90;26.00
69626;DHT22;56847;51.984;5.088;2022-07-19T19:25:56;38.70;26.20
69626;DHT22;56847;51.984;5.088;2022-07-19T19:28:24;38.60;26.50
69626;DHT22;56847;51.984;5.088;2022-07-19T19:30:51;38.50;26.50
69626;DHT22;56847;51.984;5.088;2022-07-19T19:33:18;38.30;26.70
69626;DHT22;56847;51.984;5.088;2022-07-19T19:35:47;38.20;26.90
69626;DHT22;56847;51.984;5.088;2022-07-19T19:38:16;38.10;27.20
69626;DHT22;56847;51.984;5.088;2022-07-19T19:40:47;37.90;27.30
69626;DHT22;56847;51.984;5.088;2022-07-19T19:43:21;37.80;27.30
69626;DHT22;56847;51.984;5.088;2022-07-19T19:45:51;37.70;27.30
69626;DHT22;56847;51.984;5.088;2022-07-19T19:48:20;37.60;27.40